153-й AP3

Карта отелей и гостиниц, располагающихся рядом с аэропортом 153-й AP3 :

153-й AP3
Артем
Приморский край 43° 23' 57.264" N, 132° 12' 16.596" E
153-й AP3
Артем
Приморский край 43° 23' 57.264" N, 132° 12' 16.596" E
Код аэродрома ИКАО
HHC4
Код аэродрома RU
ХХЦ4
Координаты
N43.39924° E132.20461°
Превышение над уровнем моря
21
Основная полоса
10/28
Курс магнитный
097,8/277,8
Длина основной ВПП
44
Ширина основной ВПП
44
Покрытие основной ВПП
Твёрдое
Освещение ВПП
Нет
Тип: 
Вертодром
Класс аэродрома: 
Принадлежность: 
ЭА
Статус: 
Действующий
Сайт: 
E-mail аэродрома: 
Страна: 
Россия
Регион: 
Приморский край
Город: 
Артем
Дополнительная информация: 
Владелец ПП: нет данных. Имеет круглую форму. Маркирована не нормативно.

Найти трансфер

С помощью этой формы Вы можете найти трансфер из аэропорта 153-й AP3 в город, аэропорт или вокзал:

Карта места

Javascript is required to view this map.

Погода в аэропортах:

Авиационная погода в Кневичи

Регион: 
Погода METAR: 
UHWW 061030Z 32002MPS 0300 0100N R25L/2000D FZFG VV001 M04/M05 Q1026 R25L/0///70 NOSIG RMK QBB050 MT OBSC QFE768
Время наблюдения
2021-12-06T10:30:00Z
Температура C
-4.0
Точка росы
-5.0
Направление ветра
320
Скорость ветра (узлы)
4
Метео видимость
0.19
Явления погоды
FZFG
Условия полета
LIFR
Аэропорт подробнее: 

Авиационная погода в Бресте

Регион: 
Погода METAR: 
UMBB 060800Z 08003MPS 2800 -SHSN BR OVC004CB M01/M02 Q1010 NOSIG RMK QBB140
Время наблюдения
2021-12-06T08:00:00Z
Температура C
-1.0
Точка росы
-2.0
Направление ветра
80
Скорость ветра (узлы)
6
Метео видимость
1.74
Явления погоды
-SHSN BR
Условия полета
LIFR
Аэропорт подробнее: 

Авиационная погода в Аулие-Ата

Регион: 
Погода METAR: 
UADD 061130Z 36004MPS 5000 BR SCT026 OVC100 06/02 Q1022 NOSIG RMK QFE709/0945
Время наблюдения
2021-12-06T11:30:00Z
Температура C
6.0
Точка росы
2.0
Направление ветра
360
Скорость ветра (узлы)
8
Метео видимость
3.11
Явления погоды
BR
Условия полета
MVFR
Аэропорт подробнее: 

Авиационная погода в Петропавловске

Регион: 
Погода METAR: 
UACP 061130Z 24006MPS 6000 -SN OVC033 M04/M05 Q1012 NOSIG RMK QFE747/0996
Время наблюдения
2021-12-06T11:30:00Z
Температура C
-4.0
Точка росы
-5.0
Направление ветра
240
Скорость ветра (узлы)
12
Метео видимость
3.73
Явления погоды
-SN
Условия полета
MVFR
Аэропорт подробнее: